Overview Statistics Trail Chart Weather Telemetry Raw packets
 

This is the latest recevied weather packets stored in our database for station/object IZ2XCK-13. If no packets are shown the sender has not sent any weather packets the latest 10 day(s).

<< 1 2 3 4 5 6 7 >>
Time Temp. Humidity Pressure Rain* Wind** Luminosity Snow
1788477226 22.22° C 58% 1023.3 hPa - - - -
1788476026 22.22° C 60% 1023.4 hPa - - - -
1788474826 22.78° C 59% 1023.5 hPa - - - -
1788473625 23.33° C 59% 1023.3 hPa - - - -
1788472425 23.33° C 60% 1023.2 hPa - - - -
1788471225 23.33° C 60% 1023.1 hPa - - - -
1788470025 23.33° C 59% 1023.1 hPa - - - -
1788468824 23.89° C 60% 1023.1 hPa - - - -
1788467624 23.89° C 59% 1023.1 hPa - - - -
1788466424 23.89° C 60% 1023.1 hPa - - - -
1788465223 24.44° C 58% 1022.9 hPa - - - -
1788464023 24.44° C 58% 1022.8 hPa - - - -
1788462823 25° C 57% 1022.7 hPa - - - -
1788461622 25° C 57% 1022.4 hPa - - - -
1788460422 25.56° C 56% 1022.2 hPa - - - -
1788459222 26.11° C 55% 1022.1 hPa - - - -
1788458021 26.11° C 54% 1021.8 hPa - - - -
1788456821 26.11° C 53% 1021.5 hPa - - - -
1788455621 26.67° C 52% 1021.4 hPa - - - -
1788454420 26.67° C 51% 1021.2 hPa - - - -
1788453220 27.78° C 49% 1021.2 hPa - - - -
1788452020 28.33° C 46% 1021.1 hPa - - - -
1788450819 28.33° C 47% 1020.9 hPa - - - -
1788449619 30.56° C 43% 1020.8 hPa - - - -
1788448419 30° C 43% 1020.7 hPa - - - -

* Rain since midnight (hover to see other rain measurements)
** Current wind speed in m/s (hover to see current wind gust speed)